Terminal Aerodrome Forecast
Issued by NWS

Home | Current Version | Previous Version | Text Only | Print | Product List | Glossary On
Versions: 1 2 3 4 5 6 7 8 9 10 11 12 13 14 15 16
000
FTUS43 KDLH 301854 AAA
TAFHYR
TAF AMD
KHYR 301854Z 3019/3118 27010G18KT P6SM VCTS SCT050CB
     FM310100 27008KT P6SM SCT060
     FM311600 28008G17KT P6SM FEW070=

USA.gov is the U.S. government's official web portal to all federal, state and local government web resources and services.